Terminal Aerodrome Forecast
Issued by NWS

Home | Current Version | Previous Version | Text Only | Print | Product List | Glossary On
Versions: 1 2 3 4 5 6 7 8 9 10 11 12 13 14 15 16 17 18
917
FTUS44 KCRP 190520
TAFALI
TAF
KALI 190520Z 1906/2006 34005KT P6SM VCSH BKN025 OVC030
      TEMPO 1906/1909 3SM -SHRA BR OVC015
     FM190900 33005KT 2SM -SHRA BR OVC008
     FM191300 30005KT 5SM BR OVC015
     FM191500 32005KT P6SM OVC025
     FM191800 22005KT P6SM BKN050=

USA.gov is the U.S. government's official web portal to all federal, state and local government web resources and services.